Monday, December 18, 2017, 5:53 AM EST
Back to Local

KMSV, Monticello, Sullivan County International Airport

Location: Swan Lake, NY, United States Lat: 41.7
Local Time: 5:53 AM EST (10:53 GMT) Lon: -74.8
Time Zone: US/Eastern Elev: 1404 ft

Show me the last for .
Show Decoded

2017-12-18 05:30 METAR KMSV 181030Z AUTO M03/M06 RMK AO2 PWINO FZRANO RVRNO $ =
2017-12-18 05:07 METAR KMSV 181007Z AUTO 00000KT 10SM OVC004 M04/M06 A3008 RMK AO2 FZRANO TSNO =
2017-12-18 04:56 METAR KMSV 180956Z AUTO 00000KT 10SM OVC006 M04/M06 A3008 RMK AO2 SLP206
                 T10391056 FZRANO =
2017-12-18 03:56 METAR KMSV 180856Z AUTO 00000KT 10SM OVC006 M04/M06 A3009 RMK AO2 SLP208
                 T10391061 58009 FZRANO =
2017-12-18 02:56 METAR KMSV 180756Z AUTO 00000KT 10SM OVC006 M04/M07 A3011 RMK AO2 SLP215
                 T10391067 FZRANO =
2017-12-18 01:56 METAR KMSV 180656Z AUTO 00000KT 10SM OVC006 M04/M07 A3012 RMK AO2 SLP217
                 T10441067 FZRANO =
2017-12-18 01:25 METAR KMSV 180625Z AUTO 06003KT 10SM BKN008 OVC095 M04/M07 A3012 RMK AO2 FZRANO
                 =
2017-12-18 01:17 METAR KMSV 180617Z AUTO 00000KT 10SM SCT008 OVC095 M04/M07 A3012 RMK AO2 FZRANO
                 =
2017-12-18 00:56 METAR KMSV 180556Z AUTO 00000KT 10SM OVC100 M05/M07 A3012 RMK AO2 SLP219 6////
                 T10501072 11033 21050 58014 FZRANO =
2017-12-17 23:56 METAR KMSV 180456Z AUTO 09004KT 10SM OVC045 M04/M07 A3014 RMK AO2 SNB40E50
                 SLP224 P0000 T10441072 410171061 FZRANO =
2017-12-17 22:56 METAR KMSV 180356Z AUTO 08005KT 10SM OVC043 M04/M07 A3015 RMK AO2 SLP230
                 T10441072 FZRANO =
2017-12-17 21:56 METAR KMSV 180256Z AUTO 08004KT 10SM OVC047 M04/M06 A3016 RMK AO2 SLP235 6////
                 T10391061 58008 FZRANO =
2017-12-17 20:56 METAR KMSV 180156Z AUTO 08004KT 9SM CLR M04/M06 A3017 RMK AO2 SNE03B35E52 SLP237
                 P0000 T10391061 FZRANO =
2017-12-17 19:56 METAR KMSV 180056Z AUTO 13004KT 9SM -SN CLR M04/M06 A3019 RMK AO2 SNB50 SLP244
                 P0000 T10391061 FZRANO =
2017-12-17 18:56 METAR KMSV 172356Z AUTO 00000KT 10SM CLR M04/M07 A3019 RMK AO2 SLP245 T10391067
                 11017 21044 53005 FZRANO =
2017-12-17 18:34 METAR KMSV 172334Z AUTO 00000KT 10SM FEW023 M04/M07 A3019 RMK AO2 FZRANO =
2017-12-17 17:56 METAR KMSV 172256Z AUTO 00000KT 10SM OVC020 M04/M07 A3018 RMK AO2 SLP243
                 T10391067 FZRANO =
2017-12-17 17:37 METAR KMSV 172237Z AUTO 34003KT 10SM BKN022 M04/M07 A3019 RMK AO2 FZRANO =
2017-12-17 16:56 METAR KMSV 172156Z AUTO 00000KT 10SM CLR M04/M07 A3018 RMK AO2 SLP240 T10391072
                 FZRANO =
2017-12-17 16:12 METAR KMSV 172112Z AUTO 22003KT 10SM SCT020 BKN047 M03/M07 A3017 RMK AO2 FZRANO
                 =
2017-12-17 15:56 METAR KMSV 172056Z AUTO 24003KT 10SM BKN020 M02/M07 A3017 RMK AO2 SLP238
                 T10221067 50001 FZRANO =
2017-12-17 15:52 METAR KMSV 172052Z AUTO 00000KT 10SM BKN020 M02/M07 A3017 RMK AO2 FZRANO =
2017-12-17 14:56 METAR KMSV 171956Z AUTO 24004KT 10SM CLR M02/M07 A3017 RMK AO2 SLP238 T10221067
                 FZRANO =
2017-12-17 13:56 METAR KMSV 171856Z AUTO 24003KT 10SM OVC046 M02/M07 A3017 RMK AO2 SLP236
                 T10171067 FZRANO =
2017-12-17 12:56 METAR KMSV 171756Z AUTO 00000KT 10SM OVC044 M02/M07 A3018 RMK AO2 SLP241
                 T10171067 11017 21061 58016 FZRANO =
2017-12-17 11:56 METAR KMSV 171656Z AUTO 32004KT 10SM OVC046 M02/M07 A3020 RMK AO2 SLP248
                 T10171067 FZRANO =
2017-12-17 10:56 METAR KMSV 171556Z AUTO 31006KT 10SM FEW014 BKN033 OVC044 M03/M08 A3022 RMK AO2
                 SLP254 T10331078 FZRANO =
2017-12-17 10:17 METAR KMSV 171517Z AUTO 30005KT 10SM BKN014 OVC033 M04/M08 A3024 RMK AO2 FZRANO
                 =
2017-12-17 09:56 METAR KMSV 171456Z AUTO 30005KT 10SM OVC033 M04/M08 A3023 RMK AO2 SLP259
                 T10441083 51012 FZRANO =
2017-12-17 08:56 METAR KMSV 171356Z AUTO 30005KT 10SM BKN035 OVC050 M05/M09 A3023 RMK AO2 SLP258
                 T10501089 FZRANO =
2017-12-17 07:56 METAR KMSV 171256Z AUTO 27003KT 10SM OVC031 M06/M09 A3022 RMK AO2 SLP254
                 T10611089 FZRANO =
2017-12-17 07:23 METAR KMSV 171223Z AUTO 27003KT 10SM SCT028 OVC035 M06/M09 A3022 RMK AO2 FZRANO
                 TSNO =
2017-12-17 06:56 METAR KMSV 171156Z AUTO 30003KT 10SM OVC028 M06/M09 A3020 RMK AO2 SLP247
                 T10611089 11056 21061 55002 FZRANO =
2017-12-17 05:56 METAR KMSV 171056Z AUTO 31004KT 10SM OVC028 M06/M09 A3018 RMK AO2 SLP242
                 T10611089 FZRANO =

Support USWX by starting your Amazon purchase here.